Time;durP1;ratioP1;P1;durP2;ratioP2;P2;SDS_P1;SDS_P2;PMS_P1;PMS_P2;Temp;Humidity;BMP_temperature;BMP_pressure;BME280_temperature;BME280_humidity;BME280_pressure;Samples;Min_cycle;Max_cycle;Signal;HPM_P1;HPM_P2
2022/05/22 00:02:04;;;;;;;8.93;5.05;;;10.70;99.90;;;;;;5103838;27;19924;-62
2022/05/22 00:04:29;;;;;;;13.00;5.85;;;10.70;99.90;;;;;;5103058;28;20028;-61
2022/05/22 00:06:55;;;;;;;;;;;10.70;99.90;;;;;;5105898;28;20051;-62
2022/05/22 00:09:21;;;;;;;9.63;4.70;;;10.70;99.90;;;;;;5105725;28;19916;-62
2022/05/22 00:11:46;;;;;;;;;;;10.70;99.90;;;;;;5104122;28;20039;-62
2022/05/22 00:14:12;;;;;;;11.43;5.53;;;10.60;99.90;;;;;;5104718;28;19916;-62
2022/05/22 00:16:42;;;;;;;14.60;5.43;;;10.50;99.90;;;;;;5105735;28;20126;-62
2022/05/22 00:19:12;;;;;;;9.93;5.15;;;10.50;99.90;;;;;;5091585;28;20040;-62
2022/05/22 00:21:38;;;;;;;20.45;6.40;;;10.50;99.90;;;;;;5092228;28;20040;-61
2022/05/22 00:24:06;;;;;;;11.85;5.00;;;10.50;99.90;;;;;;5092984;28;20087;-61
2022/05/22 00:26:31;;;;;;;12.75;5.22;;;10.50;99.90;;;;;;5091642;28;20052;-62
2022/05/22 00:28:57;;;;;;;;;;;10.40;99.90;;;;;;5093021;28;20046;-62
2022/05/22 00:31:22;;;;;;;18.13;5.25;;;10.30;99.90;;;;;;5090300;28;19923;-61
2022/05/22 00:33:48;;;;;;;;;;;10.30;99.90;;;;;;5089785;28;20825;-63
2022/05/22 00:36:16;;;;;;;11.00;4.60;;;10.30;99.90;;;;;;5093616;28;19923;-62
2022/05/22 00:38:42;;;;;;;11.35;5.05;;;10.30;99.90;;;;;;5090538;28;20043;-63
2022/05/22 00:41:08;;;;;;;;;;;10.20;99.90;;;;;;5087294;28;20040;-63
2022/05/22 00:43:41;;;;;;;13.82;4.95;;;10.20;99.90;;;;;;5085579;28;20295;-63
2022/05/22 00:46:11;;;;;;;10.05;4.88;;;10.20;99.90;;;;;;5090851;28;20051;-63
2022/05/22 00:48:43;;;;;;;8.73;4.28;;;10.20;99.90;;;;;;5091771;28;20100;-63
2022/05/22 00:51:40;;;;;;;12.73;6.35;;;10.20;99.90;;;;;;5091093;28;20048;-63
2022/05/22 00:54:24;;;;;;;9.80;4.45;;;10.20;99.90;;;;;;5087096;28;20044;-62
2022/05/22 00:57:05;;;;;;;12.50;4.82;;;10.20;99.90;;;;;;5088217;28;20075;-63
2022/05/22 00:59:38;;;;;;;13.48;4.53;;;10.20;99.90;;;;;;5086707;28;20032;-63
2022/05/22 01:02:04;;;;;;;11.05;5.57;;;10.20;99.90;;;;;;5088853;28;20047;-63
2022/05/22 01:04:32;;;;;;;10.60;4.80;;;10.30;99.90;;;;;;5087971;28;20073;-63
2022/05/22 01:06:59;;;;;;;11.48;4.57;;;10.30;99.90;;;;;;5091018;28;20052;-63
2022/05/22 01:09:25;;;;;;;14.85;5.78;;;10.30;99.90;;;;;;5091080;28;20408;-63
2022/05/22 01:11:52;;;;;;;;;;;10.30;99.90;;;;;;5090499;28;20048;-63
2022/05/22 01:14:21;;;;;;;11.77;4.55;;;10.30;99.90;;;;;;5091186;28;19919;-63
2022/05/22 01:16:50;;;;;;;8.02;3.92;;;10.30;99.90;;;;;;5090935;28;20546;-63
2022/05/22 01:19:23;;;;;;;7.90;3.97;;;10.20;99.90;;;;;;5089499;28;20051;-63
2022/05/22 01:21:57;;;;;;;9.57;3.90;;;10.20;99.90;;;;;;5090298;28;20495;-63
2022/05/22 01:24:23;;;;;;;13.13;4.45;;;10.20;99.90;;;;;;5090615;28;20036;-63
2022/05/22 01:26:49;;;;;;;;;;;10.20;99.90;;;;;;5090517;28;20055;-63
2022/05/22 01:29:15;;;;;;;6.95;3.65;;;10.20;99.90;;;;;;5089644;28;19938;-63
2022/05/22 01:31:41;;;;;;;10.93;4.45;;;10.20;99.90;;;;;;5088967;28;20035;-63
2022/05/22 01:34:07;;;;;;;;;;;10.20;99.90;;;;;;5088193;28;20047;-63
2022/05/22 01:36:32;;;;;;;8.90;3.67;;;10.20;99.90;;;;;;5090247;28;19923;-63
2022/05/22 01:38:58;;;;;;;;;;;10.20;99.90;;;;;;5091538;28;20040;-63
2022/05/22 01:41:24;;;;;;;10.40;4.40;;;10.10;99.90;;;;;;5083031;28;19951;-63
2022/05/22 01:43:49;;;;;;;;;;;10.10;99.90;;;;;;5074132;28;20035;-63
2022/05/22 01:46:15;;;;;;;11.20;4.55;;;10.10;99.90;;;;;;5090039;28;20380;-63
2022/05/22 01:48:41;;;;;;;;;;;10.10;99.90;;;;;;5090437;28;20047;-63
2022/05/22 01:51:06;;;;;;;8.88;3.90;;;10.10;99.90;;;;;;5090098;28;19915;-63
2022/05/22 01:53:33;;;;;;;;;;;10.10;99.90;;;;;;5090483;28;20036;-63
2022/05/22 01:55:59;;;;;;;14.80;4.72;;;10.00;99.90;;;;;;5083772;28;19920;-63
2022/05/22 01:58:24;;;;;;;;;;;10.00;99.90;;;;;;5090149;28;20408;-63
2022/05/22 02:00:50;;;;;;;8.38;4.28;;;10.00;99.90;;;;;;5088602;28;19923;-63
2022/05/22 02:03:16;;;;;;;;;;;9.90;99.90;;;;;;5087922;28;20113;-63
2022/05/22 02:05:43;;;;;;;9.07;4.22;;;9.90;99.90;;;;;;5089668;28;19920;-63
2022/05/22 02:08:22;;;;;;;15.40;4.40;;;9.90;99.90;;;;;;5090232;28;20407;-63
2022/05/22 02:10:54;;;;;;;12.05;4.60;;;9.90;99.90;;;;;;5089412;28;20040;-63
2022/05/22 02:13:22;;;;;;;13.02;4.45;;;9.80;99.90;;;;;;5068601;28;20123;-63
2022/05/22 02:15:49;;;;;;;9.15;4.80;;;9.80;99.90;;;;;;5085122;28;20609;-62
2022/05/22 02:18:16;;;;;;;9.63;4.55;;;9.70;99.90;;;;;;5086021;28;20052;-63
2022/05/22 02:20:41;;;;;;;10.95;4.30;;;9.70;99.90;;;;;;5089902;28;20162;-63
2022/05/22 02:23:07;;;;;;;;;;;9.70;99.90;;;;;;5089442;28;20606;-63
2022/05/22 02:25:35;;;;;;;12.05;4.90;;;9.70;99.90;;;;;;5089391;28;19924;-63
2022/05/22 02:28:04;;;;;;;7.90;4.10;;;9.60;99.90;;;;;;5090410;28;20097;-63
2022/05/22 02:30:33;;;;;;;13.65;4.68;;;9.60;99.90;;;;;;5088047;28;20040;-63
2022/05/22 02:32:59;;;;;;;12.02;4.60;;;9.60;99.90;;;;;;5088007;28;20111;-63
2022/05/22 02:35:25;;;;;;;;;;;9.60;99.90;;;;;;5088644;28;20494;-63
2022/05/22 02:37:54;;;;;;;8.35;3.97;;;9.50;99.90;;;;;;5089458;28;20028;-63
2022/05/22 02:40:22;;;;;;;17.00;5.20;;;9.50;99.90;;;;;;5089184;28;20040;-63
2022/05/22 02:42:50;;;;;;;14.75;4.68;;;9.50;99.90;;;;;;5083418;28;20467;-64
2022/05/22 02:45:19;;;;;;;11.25;4.65;;;9.40;99.90;;;;;;5089455;28;20134;-63
2022/05/22 02:47:45;;;;;;;9.13;4.43;;;9.30;99.90;;;;;;5088947;28;20055;-63
2022/05/22 02:50:12;;;;;;;12.85;4.40;;;9.40;99.90;;;;;;5089037;28;20040;-63
2022/05/22 02:52:38;;;;;;;11.95;4.45;;;9.30;99.90;;;;;;5089267;28;20036;-63
2022/05/22 02:55:04;;;;;;;;;;;9.30;99.90;;;;;;5087431;28;20044;-63
2022/05/22 02:57:32;;;;;;;7.10;3.78;;;9.30;99.90;;;;;;5089622;28;19940;-63
2022/05/22 02:59:58;;;;;;;16.55;5.30;;;9.20;99.90;;;;;;5088968;28;20093;-64
2022/05/22 03:02:24;;;;;;;;;;;9.20;99.90;;;;;;5088686;28;20047;-62
2022/05/22 03:04:50;;;;;;;10.45;4.30;;;9.20;99.90;;;;;;5086918;28;19924;-63
2022/05/22 03:07:18;;;;;;;9.40;5.07;;;9.20;99.90;;;;;;5086392;28;20140;-63
2022/05/22 03:09:45;;;;;;;14.27;5.32;;;9.20;99.90;;;;;;5089648;28;20047;-62
2022/05/22 03:12:19;;;;;;;10.95;4.68;;;9.20;99.90;;;;;;5087846;28;20353;-63
2022/05/22 03:14:48;;;;;;;7.38;4.38;;;9.20;99.90;;;;;;5089673;28;20107;-62
2022/05/22 03:17:14;;;;;;;14.98;5.13;;;9.20;99.90;;;;;;5088526;28;20087;-63
2022/05/22 03:19:40;;;;;;;;;;;9.10;99.90;;;;;;5089496;28;20067;-63
2022/05/22 03:22:06;;;;;;;7.90;4.32;;;9.10;99.90;;;;;;5088421;28;20002;-62
2022/05/22 03:24:32;;;;;;;11.18;4.85;;;9.10;99.90;;;;;;5089179;28;20047;-63
2022/05/22 03:27:00;;;;;;;;;;;9.00;99.90;;;;;;5088009;28;20477;-62
2022/05/22 03:29:26;;;;;;;12.80;5.15;;;9.00;99.90;;;;;;5088893;28;19920;-63
2022/05/22 03:31:51;;;;;;;;;;;9.00;99.90;;;;;;5087673;28;20055;-62
2022/05/22 03:34:17;;;;;;;12.30;4.53;;;9.00;99.90;;;;;;5086387;28;19916;-62
2022/05/22 03:36:43;;;;;;;;;;;9.00;99.90;;;;;;5089303;28;20047;-62
2022/05/22 03:39:09;;;;;;;8.95;4.85;;;9.10;99.90;;;;;;5088624;28;19916;-63
2022/05/22 03:41:35;;;;;;;;;;;9.00;99.90;;;;;;5088547;28;20036;-63
2022/05/22 03:44:01;;;;;;;16.65;3.75;;;9.00;99.90;;;;;;5088259;28;20023;-62
2022/05/22 03:46:27;;;;;;;;;;;9.10;99.90;;;;;;5088546;28;20043;-62
2022/05/22 03:48:52;;;;;;;9.52;3.97;;;9.00;99.90;;;;;;5088497;28;20549;-62
2022/05/22 03:51:18;;;;;;;;;;;9.00;99.90;;;;;;5088830;28;20514;-63
2022/05/22 03:53:43;;;;;;;9.63;4.22;;;8.90;99.90;;;;;;5090891;28;19988;-62
2022/05/22 03:56:13;;;;;;;;;;;8.90;99.90;;;;;;5081764;28;20032;-63
2022/05/22 03:58:39;;;;;;;9.82;4.72;;;8.90;99.90;;;;;;5091504;28;19916;-62
2022/05/22 04:01:07;;;;;;;12.88;3.92;;;9.00;99.90;;;;;;5089240;28;20036;-63
2022/05/22 04:03:36;;;;;;;11.95;4.95;;;9.10;99.90;;;;;;5092055;28;20511;-62
2022/05/22 04:06:03;;;;;;;13.52;4.50;;;9.10;99.90;;;;;;5091959;28;20189;-62
2022/05/22 04:08:29;;;;;;;9.95;4.40;;;9.10;99.90;;;;;;5087743;28;20458;-62
2022/05/22 04:10:56;;;;;;;10.82;4.53;;;9.00;99.90;;;;;;5091323;28;20044;-63
2022/05/22 04:13:21;;;;;;;9.60;4.40;;;9.00;99.90;;;;;;5091301;28;20032;-63
2022/05/22 04:15:47;;;;;;;;;;;9.00;99.90;;;;;;5091852;28;20070;-63
2022/05/22 04:18:13;;;;;;;7.80;3.58;;;9.10;99.90;;;;;;5092021;28;19920;-63
2022/05/22 04:20:39;;;;;;;14.27;4.63;;;9.10;99.90;;;;;;5091707;28;20033;-63
2022/05/22 04:25:57;;;;;;;12.48;4.57;;;9.10;99.90;;;;;;5091605;28;19924;-63
2022/05/22 04:28:24;;;;;;;11.70;4.20;;;9.20;99.90;;;;;;5089028;28;20048;-63
2022/05/22 04:30:50;;;;;;;9.38;4.90;;;9.20;99.90;;;;;;5084398;28;20560;-63
2022/05/22 04:33:16;;;;;;;12.15;5.47;;;9.40;99.90;;;;;;5091875;28;20052;-63
2022/05/22 04:35:43;;;;;;;;;;;9.50;99.90;;;;;;5091723;28;20051;-63
2022/05/22 04:38:10;;;;;;;13.90;4.90;;;9.60;99.90;;;;;;5091785;28;20402;-63
2022/05/22 04:40:37;;;;;;;11.15;5.40;;;9.70;99.90;;;;;;5091241;28;20044;-63
2022/05/22 04:43:02;;;;;;;8.85;3.85;;;9.80;99.90;;;;;;5091484;28;20040;-63
2022/05/22 04:45:28;;;;;;;;;;;9.80;99.90;;;;;;5091776;28;20101;-63
2022/05/22 04:47:54;;;;;;;5.78;3.90;;;9.80;99.90;;;;;;5091457;28;20011;-63
2022/05/22 04:50:19;;;;;;;;;;;9.80;99.90;;;;;;5091506;28;20067;-63
2022/05/22 04:52:45;;;;;;;10.93;4.35;;;9.80;99.90;;;;;;5091333;28;19966;-63
2022/05/22 04:55:11;;;;;;;;;;;9.80;99.90;;;;;;5083931;28;20041;-63
2022/05/22 04:57:37;;;;;;;12.43;4.60;;;9.90;99.90;;;;;;5080195;28;19924;-63
2022/05/22 05:00:04;;;;;;;8.25;4.60;;;9.90;99.90;;;;;;5086510;28;20042;-63
2022/05/22 05:02:30;;;;;;;11.65;4.95;;;9.90;99.90;;;;;;5088852;28;20089;-62
2022/05/22 05:04:56;;;;;;;;;;;10.10;99.90;;;;;;5092096;28;20036;-63
2022/05/22 05:07:22;;;;;;;11.70;4.07;;;10.60;99.90;;;;;;5090098;28;19980;-62
2022/05/22 05:09:48;;;;;;;;;;;11.00;99.90;;;;;;5091769;28;20031;-63
2022/05/22 05:12:13;;;;;;;10.23;3.63;;;11.30;99.90;;;;;;5090044;28;19915;-63
2022/05/22 05:14:39;;;;;;;;;;;11.90;99.90;;;;;;5091398;28;20135;-63
2022/05/22 05:17:13;;;;;;;7.90;3.08;;;12.60;99.90;;;;;;5087737;28;19955;-63
2022/05/22 05:19:42;;;;;;;11.18;4.18;;;13.20;99.90;;;;;;5090874;28;20097;-63
2022/05/22 05:22:08;;;;;;;12.13;4.47;;;13.10;99.90;;;;;;5090350;28;20392;-63
2022/05/22 05:24:34;;;;;;;13.48;3.63;;;13.10;99.90;;;;;;5085616;28;20048;-63
2022/05/22 05:26:59;;;;;;;;;;;12.80;99.90;;;;;;5081606;28;20042;-63
2022/05/22 05:29:25;;;;;;;8.63;3.10;;;12.80;99.90;;;;;;5080018;28;20022;-63
2022/05/22 05:31:51;;;;;;;6.82;3.15;;;12.80;99.90;;;;;;5080670;28;20028;-63
2022/05/22 05:34:17;;;;;;;;;;;12.80;99.90;;;;;;5087911;28;20040;-63
2022/05/22 05:36:42;;;;;;;10.13;3.20;;;12.80;99.90;;;;;;5088500;28;19916;-63
2022/05/22 05:39:09;;;;;;;10.05;3.50;;;13.10;99.90;;;;;;5089223;28;20040;-63
2022/05/22 05:41:35;;;;;;;9.70;3.10;;;13.40;99.90;;;;;;5089251;28;20035;-63
2022/05/22 05:44:06;;;;;;;9.38;3.60;;;13.60;99.90;;;;;;5084887;28;20037;-63
2022/05/22 05:46:36;;;;;;;6.65;2.60;;;13.70;99.90;;;;;;5088319;28;20076;-63
2022/05/22 05:49:06;;;;;;;8.25;3.28;;;13.70;99.90;;;;;;5089850;28;20559;-62
2022/05/22 05:51:32;;;;;;;9.25;3.40;;;13.60;99.90;;;;;;5090169;28;20047;-63
2022/05/22 05:53:59;;;;;;;9.63;2.95;;;13.40;99.90;;;;;;5090156;28;20035;-63
2022/05/22 05:56:25;;;;;;;8.18;3.58;;;13.40;99.90;;;;;;5087560;28;20503;-63
2022/05/22 05:58:51;;;;;;;10.10;3.63;;;13.50;99.90;;;;;;5081800;28;20044;-65
2022/05/22 06:01:18;;;;;;;14.80;3.45;;;13.40;99.90;;;;;;5085899;28;20130;-65
2022/05/22 06:03:44;;;;;;;9.63;3.88;;;13.20;99.90;;;;;;5083954;28;20542;-64
2022/05/22 06:06:11;;;;;;;;;;;13.10;99.90;;;;;;5087664;28;20044;-65
2022/05/22 06:08:37;;;;;;;8.30;3.20;;;13.00;99.90;;;;;;5086769;28;19920;-66
2022/05/22 06:11:03;;;;;;;8.18;3.42;;;13.00;99.90;;;;;;5090285;28;20036;-64
2022/05/22 06:13:29;;;;;;;11.55;3.75;;;13.30;99.90;;;;;;5089626;28;20043;-64
2022/05/22 06:15:54;;;;;;;;;;;13.50;99.90;;;;;;5074910;28;20032;-67
2022/05/22 06:18:21;;;;;;;6.50;3.50;;;13.60;99.90;;;;;;5087004;28;19950;-67
2022/05/22 06:20:47;;;;;;;7.95;3.83;;;13.50;99.90;;;;;;5089775;28;20120;-65
2022/05/22 06:23:12;;;;;;;9.88;4.75;;;13.60;99.90;;;;;;5079296;28;20135;-65
2022/05/22 06:25:40;;;;;;;;;;;13.80;99.90;;;;;;5083161;28;20036;-66
2022/05/22 06:28:06;;;;;;;9.85;4.05;;;14.10;99.90;;;;;;5089434;28;19927;-64
2022/05/22 06:30:32;;;;;;;;;;;14.30;99.90;;;;;;5078862;28;21313;-65
2022/05/22 06:33:00;;;;;;;11.13;4.32;;;14.60;99.90;;;;;;5079439;28;19922;-66
2022/05/22 06:35:25;;;;;;;10.98;4.30;;;15.00;99.90;;;;;;5081952;28;20040;-66
2022/05/22 06:37:51;;;;;;;;;;;15.30;99.90;;;;;;5086353;28;20043;-64
2022/05/22 06:40:16;;;;;;;14.43;7.20;;;15.60;99.90;;;;;;5076683;28;20307;-64
2022/05/22 06:42:43;;;;;;;;;;;16.00;99.90;;;;;;5080041;28;20072;-64
2022/05/22 06:45:13;;;;;;;19.08;10.38;;;15.90;99.90;;;;;;5085755;28;19916;-64
2022/05/22 06:47:40;;;;;;;18.40;9.07;;;15.80;99.90;;;;;;5079790;28;20064;-65
2022/05/22 06:50:09;;;;;;;24.80;9.98;;;15.80;99.90;;;;;;5084008;28;20040;-64
2022/05/22 06:52:35;;;;;;;17.95;8.55;;;15.90;99.90;;;;;;5085740;28;20036;-64
2022/05/22 06:55:01;;;;;;;23.48;9.93;;;15.90;99.90;;;;;;5082374;28;20041;-65
2022/05/22 06:57:27;;;;;;;;;;;15.80;99.90;;;;;;5086532;28;20592;-63
2022/05/22 06:59:55;;;;;;;19.73;9.32;;;15.70;99.90;;;;;;5076945;28;19920;-64
2022/05/22 07:02:21;;;;;;;21.05;8.27;;;15.60;99.90;;;;;;5079264;28;20044;-65
2022/05/22 07:04:47;;;;;;;19.45;10.60;;;15.70;99.90;;;;;;5068369;28;20040;-65
2022/05/22 07:07:13;;;;;;;;;;;15.60;99.90;;;;;;5081718;28;20044;-65
2022/05/22 07:09:38;;;;;;;18.60;10.40;;;15.50;99.90;;;;;;5084640;28;19920;-65
2022/05/22 07:12:08;;;;;;;;;;;15.50;99.90;;;;;;5078581;28;20075;-65
2022/05/22 07:14:34;;;;;;;17.33;10.30;;;15.30;99.90;;;;;;5085817;28;19920;-65
2022/05/22 07:17:02;;;;;;;17.30;9.93;;;15.20;99.90;;;;;;5086519;28;20055;-65
2022/05/22 07:19:28;;;;;;;19.17;8.30;;;15.20;99.90;;;;;;5086290;28;20063;-65
2022/05/22 07:21:54;;;;;;;;;;;15.20;99.90;;;;;;5086597;28;20547;-65
2022/05/22 07:24:19;;;;;;;20.98;10.32;;;15.90;99.90;;;;;;5085896;28;19924;-65
2022/05/22 07:26:45;;;;;;;18.02;8.75;;;17.10;98.60;;;;;;5086176;28;20032;-65
2022/05/22 07:29:10;;;;;;;16.95;7.68;;;18.00;97.60;;;;;;5082034;28;20044;-65
2022/05/22 07:31:39;;;;;;;16.67;8.80;;;17.60;96.70;;;;;;5088075;28;20487;-65
2022/05/22 07:34:05;;;;;;;19.15;7.88;;;17.30;97.70;;;;;;5090370;28;20044;-65
2022/05/22 07:36:30;;;;;;;;;;;17.00;98.50;;;;;;5090146;28;20051;-65
2022/05/22 07:38:56;;;;;;;19.00;7.47;;;16.70;98.80;;;;;;5090911;28;19927;-65
2022/05/22 07:41:22;;;;;;;17.38;8.38;;;16.40;99.70;;;;;;5090393;28;20579;-64
2022/05/22 07:43:47;;;;;;;;;;;16.10;99.10;;;;;;5090484;28;20032;-64
2022/05/22 07:46:13;;;;;;;16.80;7.03;;;15.90;99.50;;;;;;5089918;28;19923;-64
2022/05/22 07:48:41;;;;;;;22.40;8.07;;;16.30;99.90;;;;;;5090277;28;20115;-64
2022/05/22 07:51:08;;;;;;;14.52;6.65;;;17.10;98.20;;;;;;5090004;28;20093;-64
2022/05/22 07:53:34;;;;;;;15.30;7.25;;;18.80;94.60;;;;;;5089813;28;20043;-65
2022/05/22 07:56:01;;;;;;;13.68;6.47;;;20.10;86.80;;;;;;5088919;28;20052;-65
2022/05/22 07:58:28;;;;;;;12.95;7.28;;;21.40;84.30;;;;;;5076777;28;20040;-65
2022/05/22 08:00:55;;;;;;;9.52;4.90;;;21.60;77.70;;;;;;5088152;28;20108;-65
2022/05/22 08:03:22;;;;;;;11.90;5.28;;;22.40;81.70;;;;;;5091401;28;20741;-65
2022/05/22 08:05:48;;;;;;;9.77;4.50;;;23.20;78.20;;;;;;5089322;28;20043;-65
2022/05/22 08:08:14;;;;;;;9.77;4.45;;;24.20;72.70;;;;;;5088964;28;20048;-66
2022/05/22 08:10:40;;;;;;;11.85;4.50;;;24.40;68.60;;;;;;5089114;28;20036;-65
2022/05/22 08:13:08;;;;;;;10.93;4.75;;;24.20;66.70;;;;;;5090385;28;20051;-65
2022/05/22 08:15:35;;;;;;;10.60;4.75;;;23.20;66.50;;;;;;5090175;28;20039;-65
2022/05/22 08:18:02;;;;;;;10.27;3.65;;;21.70;70.70;;;;;;5087130;28;20036;-66
2022/05/22 08:20:33;;;;;;;10.65;4.45;;;22.40;73.30;;;;;;5081149;28;20040;-65
2022/05/22 08:23:05;;;;;;;9.77;3.42;;;23.40;66.70;;;;;;5090237;28;20115;-62
2022/05/22 08:25:32;;;;;;;14.35;4.22;;;24.30;66.40;;;;;;5089290;28;20055;-62
2022/05/22 08:27:58;;;;;;;9.70;4.00;;;24.30;62.40;;;;;;5090130;28;20810;-62
2022/05/22 08:30:26;;;;;;;10.73;4.30;;;22.90;65.70;;;;;;5079321;28;20032;-63
2022/05/22 08:32:53;;;;;;;15.82;4.50;;;21.40;70.80;;;;;;5088838;28;20070;-63
2022/05/22 08:35:39;;;;;;;10.50;3.95;;;20.60;75.90;;;;;;5089474;28;20051;-62
2022/05/22 08:38:05;;;;;;;;;;;20.00;78.50;;;;;;5088707;28;20028;-62
2022/05/22 08:40:56;;;;;;;10.52;4.68;;;19.20;84.10;;;;;;5089216;28;19920;-61
2022/05/22 08:43:31;;;;;;;16.13;5.22;;;18.60;87.10;;;;;;5077207;28;20064;-62
2022/05/22 08:46:06;;;;;;;10.02;4.13;;;18.70;90.00;;;;;;5088823;28;20761;-62
2022/05/22 08:48:36;;;;;;;13.10;5.18;;;18.70;90.10;;;;;;5088723;28;20044;-63
2022/05/22 08:51:08;;;;;;;15.70;6.10;;;19.30;83.40;;;;;;5088270;28;20119;-63
2022/05/22 08:53:50;;;;;;;9.80;5.32;;;19.20;83.30;;;;;;5089100;28;20040;-63
2022/05/22 08:59:19;;;;;;;13.23;5.38;;;19.00;83.40;;;;;;5080825;28;20048;-64
2022/05/22 09:02:14;;;;;;;10.82;5.30;;;18.30;82.90;;;;;;5087431;28;20095;-64
2022/05/22 09:05:11;;;;;;;17.98;5.05;;;17.90;85.80;;;;;;5077262;28;20551;-65
2022/05/22 09:08:24;;;;;;;11.95;5.35;;;17.60;86.90;;;;;;5087266;28;20055;-64
2022/05/22 09:11:13;;;;;;;16.48;5.88;;;17.80;87.20;;;;;;5054781;28;20051;-66
2022/05/22 09:13:56;;;;;;;11.48;4.65;;;18.10;82.60;;;;;;5085110;28;20036;-65
2022/05/22 09:16:26;;;;;;;15.75;5.70;;;18.30;83.50;;;;;;5088880;28;20043;-65
2022/05/22 09:19:11;;;;;;;7.85;3.92;;;18.40;82.90;;;;;;5089113;28;20040;-65
2022/05/22 09:21:45;;;;;;;8.73;4.20;;;18.60;86.00;;;;;;5088430;28;20131;-66
2022/05/22 09:24:30;;;;;;;17.10;5.40;;;18.50;84.10;;;;;;5086956;28;20089;-64
2022/05/22 09:27:08;;;;;;;11.25;4.05;;;18.30;82.10;;;;;;5089089;28;20040;-64
2022/05/22 09:29:45;;;;;;;10.48;4.70;;;18.50;86.10;;;;;;5080944;28;20046;-65
2022/05/22 09:32:23;;;;;;;11.80;4.13;;;18.70;81.00;;;;;;5086894;28;20032;-67
2022/05/22 09:35:14;;;;;;;8.63;3.20;;;18.80;82.60;;;;;;5088902;28;20036;-65
2022/05/22 09:38:08;;;;;;;13.52;3.72;;;18.60;82.20;;;;;;5080259;28;20040;-64
2022/05/22 09:41:03;;;;;;;10.65;3.13;;;18.30;83.50;;;;;;5088311;28;20040;-65
2022/05/22 09:43:29;;;;;;;11.48;4.07;;;18.00;86.70;;;;;;5076238;28;20048;-65
2022/05/22 09:46:04;;;;;;;;;;;18.00;88.30;;;;;;5089183;28;20052;-65
2022/05/22 09:48:57;;;;;;;9.80;3.80;;;17.60;88.00;;;;;;5088542;28;19916;-65
2022/05/22 09:51:27;;;;;;;13.63;4.30;;;17.70;86.90;;;;;;5087611;28;20075;-64
2022/05/22 09:54:15;;;;;;;12.20;3.70;;;17.50;87.60;;;;;;5070490;28;20036;-64
2022/05/22 09:56:58;;;;;;;11.48;3.92;;;17.40;90.80;;;;;;5088952;28;20043;-64
2022/05/22 09:59:30;;;;;;;10.63;4.97;;;17.30;90.00;;;;;;5084903;28;20116;-65
2022/05/22 10:01:59;;;;;;;13.13;3.97;;;17.50;87.50;;;;;;5086789;28;20036;-65
2022/05/22 10:04:52;;;;;;;13.02;4.15;;;17.60;88.60;;;;;;5088078;28;20039;-64
2022/05/22 10:07:46;;;;;;;10.30;3.42;;;17.60;88.00;;;;;;5088096;28;20044;-63
2022/05/22 10:10:38;;;;;;;9.35;3.63;;;17.80;86.30;;;;;;5085024;28;20043;-64
2022/05/22 10:13:18;;;;;;;9.35;3.58;;;17.70;88.90;;;;;;5087587;28;20048;-64
2022/05/22 10:15:52;;;;;;;10.45;3.40;;;17.50;88.10;;;;;;5087525;28;20100;-64
2022/05/22 10:18:43;;;;;;;13.68;3.97;;;17.50;89.00;;;;;;5087510;28;20048;-64
2022/05/22 10:21:22;;;;;;;8.35;3.47;;;17.40;90.00;;;;;;5087070;28;20044;-64
2022/05/22 10:24:02;;;;;;;13.45;4.43;;;17.30;90.80;;;;;;5086424;28;20143;-64
2022/05/22 10:26:54;;;;;;;9.15;3.15;;;17.20;90.20;;;;;;5066867;28;20041;-65
2022/05/22 10:29:29;;;;;;;17.52;4.45;;;17.10;90.40;;;;;;5078954;28;20082;-63
2022/05/22 10:32:11;;;;;;;8.32;3.55;;;17.20;90.60;;;;;;5085482;28;20186;-63
2022/05/22 10:34:36;;;;;;;7.65;3.65;;;17.30;90.30;;;;;;5068378;28;20059;-64
2022/05/22 10:37:14;;;;;;;;;;;17.80;90.70;;;;;;5076305;28;20373;-63
2022/05/22 10:39:39;;;;;;;10.25;3.90;;;18.00;88.70;;;;;;5080241;28;19916;-64
2022/05/22 10:45:06;;;;;;;8.18;3.17;;;17.90;85.50;;;;;;5080922;28;20036;-64
2022/05/22 10:47:34;;;;;;;10.02;3.10;;;18.10;88.10;;;;;;5075081;28;20082;-64
2022/05/22 10:50:12;;;;;;;21.00;6.10;;;18.10;87.90;;;;;;5087786;28;20039;-64
2022/05/22 10:52:37;;;;;;;13.18;5.18;;;18.00;92.80;;;;;;5084403;28;20050;-66
2022/05/22 10:55:04;;;;;;;;;;;18.20;93.00;;;;;;5086332;28;20116;-66
2022/05/22 10:57:32;;;;;;;11.88;4.90;;;18.00;92.50;;;;;;5082331;28;19915;-64
2022/05/22 11:00:08;;;;;;;11.15;4.88;;;18.00;95.60;;;;;;5077484;28;20051;-64
2022/05/22 11:02:34;;;;;;;8.00;4.28;;;17.90;93.10;;;;;;5075868;28;20036;-69
2022/05/22 11:05:00;;;;;;;;;;;17.90;93.30;;;;;;5085161;28;20507;-67
2022/05/22 11:07:45;;;;;;;11.20;4.05;;;18.10;93.80;;;;;;5081685;28;19924;-66
2022/05/22 11:10:25;;;;;;;15.32;5.13;;;18.20;92.60;;;;;;5086853;28;20511;-64
2022/05/22 11:13:12;;;;;;;12.63;4.90;;;18.50;93.10;;;;;;5084166;28;20520;-63
2022/05/22 11:15:42;;;;;;;13.20;4.32;;;18.40;90.20;;;;;;5082241;28;20446;-64
2022/05/22 11:18:23;;;;;;;13.57;5.38;;;18.40;93.70;;;;;;5084456;28;20093;-64
2022/05/22 11:21:14;;;;;;;14.73;5.03;;;18.60;93.50;;;;;;5076098;28;20098;-64
2022/05/22 11:24:05;;;;;;;11.48;5.00;;;18.50;91.80;;;;;;5076466;28;20507;-63
2022/05/22 11:27:06;;;;;;;10.90;3.78;;;18.30;90.90;;;;;;5078157;28;20036;-63
2022/05/22 11:29:54;;;;;;;9.93;3.63;;;17.90;91.10;;;;;;5080189;28;20558;-63
2022/05/22 11:33:19;;;;;;;6.60;3.53;;;17.90;92.30;;;;;;5076080;28;20056;-64
2022/05/22 11:35:59;;;;;;;12.57;3.90;;;17.80;91.20;;;;;;4974435;28;20121;-64
2022/05/22 11:38:25;;;;;;;9.40;3.58;;;17.70;90.60;;;;;;4983835;28;20051;-64
2022/05/22 11:40:56;;;;;;;;;;;17.80;91.70;;;;;;5039750;28;20399;-63
2022/05/22 11:43:42;;;;;;;9.23;2.85;;;17.70;91.20;;;;;;5066947;28;20543;-63
2022/05/22 11:46:49;;;;;;;12.85;3.38;;;17.70;90.10;;;;;;5085788;28;20048;-63
2022/05/22 11:49:47;;;;;;;6.95;3.33;;;17.90;90.40;;;;;;5086851;28;20044;-65
2022/05/22 11:52:56;;;;;;;12.60;4.55;;;18.30;91.00;;;;;;5046523;28;20072;-65
2022/05/22 11:55:45;;;;;;;10.00;4.15;;;17.80;94.00;;;;;;5085295;28;20101;-64
2022/05/22 11:58:22;;;;;;;12.60;4.40;;;18.00;93.90;;;;;;5066049;28;20503;-63
2022/05/22 12:01:12;;;;;;;17.63;6.25;;;18.00;93.10;;;;;;5082485;28;20033;-62
2022/05/22 12:04:08;;;;;;;11.73;5.03;;;17.80;92.80;;;;;;5075946;28;20040;-64
2022/05/22 12:06:58;;;;;;;11.32;4.85;;;17.50;92.20;;;;;;5086204;28;20508;-64
2022/05/22 12:09:36;;;;;;;11.38;4.60;;;17.40;93.90;;;;;;5086076;28;20066;-64
2022/05/22 12:12:09;;;;;;;12.20;4.90;;;17.30;93.40;;;;;;5085638;28;20036;-63
2022/05/22 12:15:09;;;;;;;17.65;6.22;;;17.40;94.40;;;;;;5087020;28;20093;-64
2022/05/22 12:17:45;;;;;;;17.00;5.75;;;17.40;93.30;;;;;;5086334;28;20105;-63
2022/05/22 12:20:13;;;;;;;12.85;5.25;;;17.50;94.00;;;;;;5087094;28;20040;-64
2022/05/22 12:23:12;;;;;;;23.50;6.18;;;17.80;94.40;;;;;;5088693;28;20040;-63
2022/05/22 12:25:49;;;;;;;13.02;6.13;;;18.20;93.10;;;;;;5075099;28;20071;-64
2022/05/22 12:28:36;;;;;;;12.98;5.47;;;18.30;92.20;;;;;;5088250;28;20111;-63
2022/05/22 12:31:05;;;;;;;8.77;4.35;;;18.20;91.80;;;;;;5083960;28;20504;-64
2022/05/22 12:33:34;;;;;;;12.93;5.90;;;18.20;92.90;;;;;;5088417;28;20528;-63
2022/05/22 12:36:01;;;;;;;18.95;5.65;;;18.10;91.60;;;;;;5089892;28;20105;-63
2022/05/22 12:38:27;;;;;;;13.65;4.93;;;18.10;92.10;;;;;;5089106;28;20036;-63
2022/05/22 12:41:09;;;;;;;;;;;17.80;92.40;;;;;;5089233;28;20400;-64
2022/05/22 12:43:34;;;;;;;15.77;5.10;;;17.90;93.30;;;;;;5085937;28;19916;-63
2022/05/22 12:46:03;;;;;;;;;;;17.90;93.40;;;;;;5088416;28;20063;-63
2022/05/22 12:48:34;;;;;;;15.27;5.00;;;18.00;93.10;;;;;;5086582;28;19968;-64
2022/05/22 12:51:17;;;;;;;11.80;4.97;;;17.90;92.60;;;;;;5088213;28;20385;-65
2022/05/22 12:53:46;;;;;;;15.60;5.57;;;17.90;92.20;;;;;;5088716;28;20040;-63
2022/05/22 12:56:38;;;;;;;9.45;4.07;;;17.60;92.00;;;;;;5089939;28;20496;-64
2022/05/22 12:59:19;;;;;;;14.48;4.15;;;17.60;93.80;;;;;;5068766;28;20058;-64
2022/05/22 13:01:45;;;;;;;12.15;5.05;;;17.70;94.30;;;;;;5083540;28;20035;-64
2022/05/22 13:04:20;;;;;;;9.75;4.00;;;17.80;93.40;;;;;;5088215;28;20123;-64
2022/05/22 13:06:53;;;;;;;11.95;4.45;;;17.90;93.00;;;;;;5088333;28;20071;-64
2022/05/22 13:09:33;;;;;;;11.77;4.22;;;18.00;93.00;;;;;;5088857;28;20492;-64
2022/05/22 13:12:20;;;;;;;11.82;4.32;;;18.10;92.70;;;;;;5088177;28;20527;-64
2022/05/22 13:14:57;;;;;;;21.77;6.07;;;18.00;93.40;;;;;;5088537;28;20047;-64
2022/05/22 13:17:39;;;;;;;15.73;5.03;;;17.80;92.40;;;;;;5072565;28;20095;-64
2022/05/22 13:20:09;;;;;;;13.82;5.80;;;17.50;93.10;;;;;;5088225;28;20040;-63
2022/05/22 13:22:40;;;;;;;11.48;5.53;;;17.50;94.00;;;;;;5085026;28;20492;-63
2022/05/22 13:25:25;;;;;;;13.00;6.13;;;17.40;95.20;;;;;;5087990;28;20637;-63
2022/05/22 13:27:51;;;;;;;11.85;5.18;;;17.40;94.50;;;;;;5088743;28;20040;-64
2022/05/22 13:30:22;;;;;;;;;;;17.30;94.70;;;;;;5080668;28;20031;-63